createdAt,value
2022-11-19T00:01:22.180Z,7.72
2022-11-19T00:03:52.699Z,7.78
2022-11-19T00:06:23.259Z,8.38
2022-11-19T00:08:50.580Z,9.63
2022-11-19T00:11:40.080Z,7.80
2022-11-19T00:14:08.607Z,9.80
2022-11-19T00:16:35.812Z,9.75
2022-11-19T00:19:02.960Z,11.25
2022-11-19T00:21:29.909Z,12.75
2022-11-19T00:23:57.439Z,13.80
2022-11-19T00:26:25.061Z,15.75
2022-11-19T00:28:52.119Z,15.93
2022-11-19T00:31:19.278Z,15.07
2022-11-19T00:33:46.732Z,17.42
2022-11-19T00:36:15.393Z,14.88
2022-11-19T00:38:42.980Z,19.33
2022-11-19T00:41:10.579Z,19.50
2022-11-19T00:43:50.357Z,20.00
2022-11-19T00:46:19.991Z,17.38
2022-11-19T00:48:48.615Z,22.98
2022-11-19T00:51:17.155Z,18.45
2022-11-19T00:53:44.315Z,14.98
2022-11-19T00:56:13.890Z,14.30
2022-11-19T00:58:41.543Z,15.30
2022-11-19T01:01:09.196Z,13.45
2022-11-19T01:03:37.359Z,14.43
2022-11-19T01:06:04.434Z,13.68
2022-11-19T01:08:31.591Z,11.75
2022-11-19T01:11:12.140Z,13.15
2022-11-19T01:13:39.453Z,12.93
2022-11-19T01:16:26.179Z,15.35
2022-11-19T01:18:53.568Z,14.93
2022-11-19T01:21:24.184Z,16.10
2022-11-19T01:23:51.836Z,13.25
2022-11-19T01:26:19.477Z,13.98
2022-11-19T01:28:46.930Z,14.38
2022-11-19T01:31:19.652Z,14.27
2022-11-19T01:33:46.888Z,15.63
2022-11-19T01:36:17.130Z,14.50
2022-11-19T01:38:50.492Z,15.70
2022-11-19T01:41:29.860Z,14.32
2022-11-19T01:44:02.009Z,15.90
2022-11-19T01:46:31.523Z,18.13
2022-11-19T01:49:12.276Z,16.73
2022-11-19T01:51:45.775Z,16.13
2022-11-19T01:54:21.713Z,16.35
2022-11-19T01:59:18.415Z,16.08
2022-11-19T02:01:46.732Z,16.88
2022-11-19T02:04:17.549Z,17.60
2022-11-19T02:06:45.667Z,14.38
2022-11-19T02:09:12.747Z,16.25
2022-11-19T02:11:59.363Z,16.90
2022-11-19T02:14:38.476Z,17.48
2022-11-19T02:17:36.696Z,14.32
2022-11-19T02:20:41.173Z,12.65
2022-11-19T02:23:52.239Z,13.50
2022-11-19T02:26:47.064Z,16.35
2022-11-19T02:29:29.232Z,14.48
2022-11-19T02:32:02.084Z,15.40
2022-11-19T02:34:58.599Z,14.40
2022-11-19T02:37:41.435Z,17.15
2022-11-19T02:40:56.046Z,13.95
2022-11-19T02:43:38.925Z,13.15
2022-11-19T02:46:13.421Z,13.82
2022-11-19T02:48:48.564Z,13.75
2022-11-19T02:51:18.180Z,15.93
2022-11-19T02:53:48.192Z,12.18
2022-11-19T02:56:36.026Z,15.10
2022-11-19T02:59:22.364Z,11.85
2022-11-19T03:02:09.253Z,13.30
2022-11-19T03:04:36.344Z,12.48
2022-11-19T03:07:15.854Z,13.70
2022-11-19T03:09:49.218Z,13.43
2022-11-19T03:12:37.525Z,10.75
2022-11-19T03:15:36.369Z,12.10
2022-11-19T03:18:09.529Z,12.57
2022-11-19T03:20:38.925Z,11.25
2022-11-19T03:23:16.342Z,14.40
2022-11-19T03:25:52.166Z,12.85
2022-11-19T03:30:53.192Z,12.35
2022-11-19T03:33:28.334Z,14.77
2022-11-19T03:36:00.915Z,14.05
2022-11-19T03:38:32.804Z,18.27
2022-11-19T03:41:02.369Z,15.50
2022-11-19T03:43:33.472Z,13.02
2022-11-19T03:46:02.677Z,13.98
2022-11-19T03:48:31.109Z,13.32
2022-11-19T03:51:00.281Z,9.43
2022-11-19T03:53:28.641Z,11.05
2022-11-19T03:56:02.650Z,11.93
2022-11-19T03:58:30.186Z,10.27
2022-11-19T04:00:57.147Z,11.23
2022-11-19T04:03:24.218Z,13.23
2022-11-19T04:05:51.173Z,12.38
2022-11-19T04:08:18.184Z,11.15
2022-11-19T04:10:45.250Z,9.45
2022-11-19T04:13:12.177Z,10.40
2022-11-19T04:15:39.188Z,10.77
2022-11-19T04:18:06.316Z,8.32
2022-11-19T04:20:33.422Z,10.23
2022-11-19T04:23:00.483Z,13.75
2022-11-19T04:25:27.386Z,10.73
2022-11-19T04:27:54.461Z,12.55
2022-11-19T04:30:21.502Z,8.82
2022-11-19T04:32:48.461Z,9.18
2022-11-19T04:35:18.153Z,7.07
2022-11-19T04:37:45.242Z,8.25
2022-11-19T04:40:12.949Z,10.52
2022-11-19T04:42:39.991Z,8.05
2022-11-19T04:45:07.644Z,9.43
2022-11-19T04:47:34.592Z,9.40
2022-11-19T04:50:01.570Z,7.90
2022-11-19T04:52:28.500Z,10.18
2022-11-19T04:54:55.473Z,11.32
2022-11-19T04:57:22.447Z,8.40
2022-11-19T04:59:49.362Z,10.93
2022-11-19T05:02:16.398Z,9.20
2022-11-19T05:04:43.365Z,9.80
2022-11-19T05:07:10.471Z,6.88
2022-11-19T05:09:37.665Z,10.85
2022-11-19T05:12:05.118Z,7.90
2022-11-19T05:14:32.117Z,11.93
2022-11-19T05:16:59.021Z,9.95
2022-11-19T05:19:26.033Z,9.25
2022-11-19T05:21:53.084Z,10.40
2022-11-19T05:24:20.015Z,12.85
2022-11-19T05:26:47.132Z,7.88
2022-11-19T05:29:14.127Z,10.75
2022-11-19T05:31:41.204Z,12.02
2022-11-19T05:34:08.175Z,10.45
2022-11-19T05:36:35.101Z,9.95
2022-11-19T05:39:02.043Z,10.55
2022-11-19T05:41:29.004Z,9.82
2022-11-19T05:43:56.665Z,10.68
2022-11-19T05:46:23.626Z,10.23
2022-11-19T05:48:50.659Z,10.00
2022-11-19T05:51:17.828Z,9.77
2022-11-19T05:53:44.987Z,9.68
2022-11-19T05:56:12.296Z,9.88
2022-11-19T05:58:39.312Z,8.05
2022-11-19T06:01:06.688Z,8.70
2022-11-19T06:03:33.663Z,7.97
2022-11-19T06:06:00.649Z,9.05
2022-11-19T06:08:27.692Z,9.70
2022-11-19T06:10:54.686Z,7.50
2022-11-19T06:13:21.643Z,6.97
2022-11-19T06:15:48.695Z,11.43
2022-11-19T06:18:15.703Z,8.57
2022-11-19T06:20:42.692Z,9.95
2022-11-19T06:23:09.704Z,8.98
2022-11-19T06:25:36.729Z,9.65
2022-11-19T06:28:03.747Z,9.13
2022-11-19T06:30:30.776Z,9.35
2022-11-19T06:32:57.636Z,8.73
2022-11-19T06:35:27.233Z,10.15
2022-11-19T06:37:54.183Z,8.85
2022-11-19T06:40:21.159Z,8.82
2022-11-19T06:42:50.979Z,8.38
2022-11-19T06:45:18.345Z,9.48
2022-11-19T06:47:48.334Z,8.32
2022-11-19T06:50:15.496Z,11.98
2022-11-19T06:52:42.504Z,7.97
2022-11-19T06:55:10.009Z,9.00
2022-11-19T06:57:37.065Z,8.60
2022-11-19T07:00:05.171Z,8.93
2022-11-19T07:02:32.234Z,12.35
2022-11-19T07:04:59.147Z,9.85
2022-11-19T07:07:26.105Z,12.77
2022-11-19T07:09:53.113Z,9.25
2022-11-19T07:12:20.043Z,10.32
2022-11-19T07:14:47.176Z,9.85
2022-11-19T07:17:14.360Z,13.10
2022-11-19T07:19:41.329Z,9.93
2022-11-19T07:22:08.444Z,9.88
2022-11-19T07:24:35.810Z,11.50
2022-11-19T07:27:02.764Z,11.60
2022-11-19T07:29:29.712Z,12.48
2022-11-19T07:31:56.678Z,15.73
2022-11-19T07:34:23.849Z,10.27
2022-11-19T07:36:50.986Z,12.05
2022-11-19T07:39:18.577Z,12.35
2022-11-19T07:42:04.534Z,12.77
2022-11-19T07:44:33.584Z,10.35
2022-11-19T07:47:00.583Z,11.23
2022-11-19T07:49:27.746Z,13.23
2022-11-19T07:51:55.032Z,16.60
2022-11-19T07:54:22.077Z,16.48
2022-11-19T07:56:49.545Z,10.65
2022-11-19T07:59:16.998Z,16.48
2022-11-19T08:01:44.548Z,13.38
2022-11-19T08:04:11.595Z,14.32
2022-11-19T08:06:38.764Z,11.38
2022-11-19T08:09:06.277Z,15.38
2022-11-19T08:11:33.263Z,14.45
2022-11-19T08:14:01.954Z,16.23
2022-11-19T08:16:48.202Z,15.88
2022-11-19T08:21:47.630Z,13.23
2022-11-19T08:24:18.657Z,14.05
2022-11-19T08:26:46.857Z,14.48
2022-11-19T08:29:16.728Z,20.90
2022-11-19T08:31:46.854Z,20.23
2022-11-19T08:34:15.335Z,18.48
2022-11-19T08:36:42.381Z,18.55
2022-11-19T08:39:09.843Z,18.50
2022-11-19T08:41:55.215Z,21.90
2022-11-19T08:44:22.727Z,25.67
2022-11-19T08:46:50.595Z,26.05
2022-11-19T08:49:17.901Z,28.10
2022-11-19T08:51:45.865Z,24.10
2022-11-19T08:54:13.321Z,26.85
2022-11-19T08:56:40.563Z,29.55
2022-11-19T08:59:07.543Z,31.25
2022-11-19T09:01:35.014Z,33.03
2022-11-19T09:04:02.039Z,27.70
2022-11-19T09:06:29.096Z,37.05
2022-11-19T09:08:56.125Z,30.95
2022-11-19T09:11:23.463Z,32.72
2022-11-19T09:13:50.592Z,35.50
2022-11-19T09:16:17.754Z,36.08
2022-11-19T09:18:44.803Z,34.45
2022-11-19T09:21:12.135Z,38.50
2022-11-19T09:23:41.393Z,37.17
2022-11-19T09:26:18.882Z,39.08
2022-11-19T09:28:46.480Z,34.88
2022-11-19T09:31:16.361Z,34.35
2022-11-19T09:33:46.602Z,36.33
2022-11-19T09:36:14.092Z,33.95
2022-11-19T09:38:41.709Z,36.67
2022-11-19T09:41:17.618Z,34.88
2022-11-19T09:44:08.385Z,38.45
2022-11-19T09:46:53.391Z,39.15
2022-11-19T09:49:39.863Z,38.75
2022-11-19T09:52:15.037Z,43.28
2022-11-19T09:54:49.870Z,45.47
2022-11-19T09:57:26.809Z,40.50
2022-11-19T09:59:56.923Z,45.70
2022-11-19T10:02:23.972Z,42.33
2022-11-19T10:04:52.096Z,46.47
2022-11-19T10:07:43.714Z,40.33
2022-11-19T10:10:48.068Z,42.67
2022-11-19T10:13:49.029Z,38.72
2022-11-19T10:16:32.761Z,42.45
2022-11-19T10:19:38.666Z,40.55
2022-11-19T10:22:27.378Z,43.92
2022-11-19T10:25:15.852Z,45.35
2022-11-19T10:27:53.550Z,47.80
2022-11-19T10:30:24.505Z,37.42
2022-11-19T10:33:00.416Z,40.30
2022-11-19T10:35:47.519Z,41.30
2022-11-19T10:38:29.738Z,37.65
2022-11-19T10:41:10.775Z,39.13
2022-11-19T10:43:46.171Z,35.92
2022-11-19T10:46:17.515Z,30.50
2022-11-19T10:48:49.189Z,37.30
2022-11-19T10:51:27.672Z,36.83
2022-11-19T10:53:55.905Z,36.70
2022-11-19T10:56:30.025Z,30.88
2022-11-19T10:59:01.434Z,33.47
2022-11-19T11:01:38.681Z,34.33
2022-11-19T11:04:22.717Z,36.72
2022-11-19T11:06:59.947Z,31.50
2022-11-19T11:09:37.263Z,37.65
2022-11-19T11:12:36.267Z,32.85
2022-11-19T11:15:23.097Z,33.22
2022-11-19T11:18:03.098Z,36.03
2022-11-19T11:20:30.975Z,28.88
2022-11-19T11:23:15.139Z,26.55
2022-11-19T11:26:08.402Z,28.10
2022-11-19T11:28:36.458Z,25.23
2022-11-19T11:31:09.668Z,26.33
2022-11-19T11:33:42.517Z,23.80
2022-11-19T11:36:11.186Z,25.33
2022-11-19T11:38:49.708Z,25.83
2022-11-19T11:44:28.035Z,26.33
2022-11-19T11:46:58.289Z,23.73
2022-11-19T11:49:28.268Z,27.85
2022-11-19T11:52:22.572Z,25.50
2022-11-19T11:55:01.431Z,23.10
2022-11-19T11:57:34.479Z,20.52
2022-11-19T12:00:03.736Z,24.50
2022-11-19T12:02:34.934Z,22.38
2022-11-19T12:05:07.623Z,26.58
2022-11-19T12:08:07.256Z,24.98
2022-11-19T12:11:10.081Z,25.13
2022-11-19T12:13:42.940Z,24.13
2022-11-19T12:16:53.234Z,25.58
2022-11-19T12:19:54.516Z,25.88
2022-11-19T12:22:43.010Z,24.63
2022-11-19T12:25:30.172Z,21.80
2022-11-19T12:28:06.442Z,25.35
2022-11-19T12:31:02.351Z,23.08
2022-11-19T12:33:44.765Z,22.75
2022-11-19T12:36:43.653Z,26.27
2022-11-19T12:39:47.173Z,20.85
2022-11-19T12:42:31.595Z,21.65
2022-11-19T12:45:01.422Z,24.55
2022-11-19T12:47:59.460Z,23.55
2022-11-19T12:50:32.756Z,19.58
2022-11-19T12:53:05.900Z,23.30
2022-11-19T12:55:35.936Z,22.33
2022-11-19T12:58:14.667Z,20.45
2022-11-19T13:00:51.367Z,24.73
2022-11-19T13:03:42.619Z,20.83
2022-11-19T13:06:18.331Z,21.08
2022-11-19T13:11:27.239Z,22.90
2022-11-19T13:16:35.048Z,22.75
2022-11-19T13:19:13.203Z,21.02
2022-11-19T13:21:50.364Z,23.60
2022-11-19T13:24:17.329Z,22.42
2022-11-19T13:26:44.325Z,22.90
2022-11-19T13:29:22.690Z,24.48
2022-11-19T13:31:58.821Z,25.25
2022-11-19T13:34:40.220Z,23.95
2022-11-19T13:37:19.105Z,21.98
2022-11-19T13:39:52.245Z,24.88
2022-11-19T13:42:39.332Z,25.38
2022-11-19T13:45:13.353Z,24.83
2022-11-19T13:48:05.244Z,22.13
2022-11-19T13:50:39.675Z,23.35
2022-11-19T13:53:33.518Z,21.80
2022-11-19T13:56:01.159Z,20.67
2022-11-19T13:58:37.860Z,26.80
2022-11-19T14:01:08.055Z,22.73
2022-11-19T14:04:32.444Z,21.75
2022-11-19T14:07:07.940Z,20.25
2022-11-19T14:12:26.716Z,24.40
2022-11-19T14:15:21.539Z,32.83
2022-11-19T14:18:16.218Z,28.42
2022-11-19T14:21:04.340Z,23.48
2022-11-19T14:24:16.439Z,26.63
2022-11-19T14:26:43.394Z,25.85
2022-11-19T14:29:33.036Z,26.40
2022-11-19T14:32:03.235Z,27.52
2022-11-19T14:34:55.063Z,34.65
2022-11-19T14:37:26.955Z,26.67
2022-11-19T14:40:16.949Z,27.20
2022-11-19T14:43:20.742Z,25.65
2022-11-19T14:46:03.318Z,26.48
2022-11-19T14:48:39.427Z,31.88
2022-11-19T14:51:10.843Z,25.55
2022-11-19T14:53:59.318Z,27.23
2022-11-19T14:56:27.133Z,26.70
2022-11-19T14:59:15.239Z,28.27
2022-11-19T15:01:54.576Z,28.45
2022-11-19T15:04:23.976Z,28.23
2022-11-19T15:06:52.245Z,38.00
2022-11-19T15:09:51.495Z,27.50
2022-11-19T15:12:20.503Z,29.38
2022-11-19T15:15:06.196Z,29.25
2022-11-19T15:17:35.306Z,32.83
2022-11-19T15:20:05.026Z,30.42
2022-11-19T15:22:50.285Z,30.65
2022-11-19T15:25:37.117Z,31.95
2022-11-19T15:28:44.108Z,27.65
2022-11-19T15:31:45.825Z,30.02
2022-11-19T15:35:03.763Z,29.48
2022-11-19T15:37:48.753Z,31.45
2022-11-19T15:40:26.086Z,39.85
2022-11-19T15:43:34.168Z,31.50
2022-11-19T15:46:11.610Z,35.53
2022-11-19T15:49:10.621Z,40.22
2022-11-19T15:52:16.108Z,35.28
2022-11-19T15:54:44.551Z,36.13
2022-11-19T15:57:17.540Z,33.97
2022-11-19T15:59:55.790Z,36.90
2022-11-19T16:02:38.333Z,38.05
2022-11-19T16:05:06.953Z,42.15
2022-11-19T16:07:34.516Z,34.83
2022-11-19T16:10:03.213Z,40.10
2022-11-19T16:12:48.661Z,38.70
2022-11-19T16:15:41.472Z,41.03
2022-11-19T16:18:17.004Z,39.22
2022-11-19T16:20:48.019Z,41.83
2022-11-19T16:23:21.826Z,38.95
2022-11-19T16:25:49.292Z,41.65
2022-11-19T16:28:25.673Z,37.75
2022-11-19T16:30:55.208Z,37.95
2022-11-19T16:33:27.921Z,43.03
2022-11-19T16:36:14.616Z,38.75
2022-11-19T16:38:46.509Z,41.13
2022-11-19T16:41:33.549Z,38.08
2022-11-19T16:44:04.851Z,49.15
2022-11-19T16:46:33.953Z,42.83
2022-11-19T16:49:03.687Z,48.22
2022-11-19T16:51:33.773Z,41.08
2022-11-19T16:54:01.990Z,41.10
2022-11-19T16:56:47.707Z,43.90
2022-11-19T16:59:24.117Z,38.70
2022-11-19T17:01:58.449Z,46.33
2022-11-19T17:04:30.298Z,46.72
2022-11-19T17:06:58.718Z,38.10
2022-11-19T17:09:33.608Z,40.63
2022-11-19T17:12:18.888Z,46.55
2022-11-19T17:15:00.583Z,45.78
2022-11-19T17:17:39.970Z,42.10
2022-11-19T17:20:30.468Z,42.17
2022-11-19T17:22:58.449Z,42.92
2022-11-19T17:25:26.319Z,46.03
2022-11-19T17:27:56.252Z,45.97
2022-11-19T17:30:31.055Z,40.45
2022-11-19T17:33:00.853Z,42.60
2022-11-19T17:35:38.223Z,38.33
2022-11-19T17:38:21.970Z,41.50
2022-11-19T17:41:00.549Z,47.60
2022-11-19T17:43:53.426Z,43.72
2022-11-19T17:46:22.130Z,43.60
2022-11-19T17:48:50.302Z,49.78
2022-11-19T17:51:23.666Z,47.92
2022-11-19T17:53:52.322Z,53.33
2022-11-19T17:56:20.580Z,43.65
2022-11-19T17:58:47.684Z,40.38
2022-11-19T18:01:15.784Z,41.38
2022-11-19T18:03:43.220Z,47.00
2022-11-19T18:06:15.429Z,45.03
2022-11-19T18:08:43.143Z,46.08
2022-11-19T18:11:15.902Z,48.17
2022-11-19T18:13:44.091Z,51.15
2022-11-19T18:16:17.357Z,48.05
2022-11-19T18:18:45.105Z,46.65
2022-11-19T18:21:17.341Z,45.58
2022-11-19T18:23:45.584Z,49.90
2022-11-19T18:26:15.868Z,46.72
2022-11-19T18:28:46.276Z,49.22
2022-11-19T18:31:17.552Z,48.42
2022-11-19T18:33:47.793Z,48.90
2022-11-19T18:36:15.411Z,48.25
2022-11-19T18:38:42.809Z,49.30
2022-11-19T18:41:14.353Z,51.20
2022-11-19T18:44:00.062Z,55.13
2022-11-19T18:46:27.124Z,56.53
2022-11-19T18:48:54.141Z,50.25
2022-11-19T18:51:30.644Z,49.92
2022-11-19T18:53:57.709Z,52.63
2022-11-19T18:56:24.737Z,49.95
2022-11-19T18:58:52.399Z,49.17
2022-11-19T19:01:19.821Z,51.38
2022-11-19T19:03:47.495Z,45.65
2022-11-19T19:06:15.692Z,49.95
2022-11-19T19:08:42.878Z,51.67
2022-11-19T19:11:29.926Z,42.80
2022-11-19T19:13:57.064Z,47.83
2022-11-19T19:16:24.056Z,162.57
2022-11-19T19:18:51.075Z,55.45
2022-11-19T19:21:20.814Z,53.90
2022-11-19T19:23:48.248Z,45.83
2022-11-19T19:26:17.615Z,47.10
2022-11-19T19:28:51.750Z,41.15
2022-11-19T19:31:20.528Z,43.20
2022-11-19T19:33:48.291Z,44.40
2022-11-19T19:36:17.207Z,40.97
2022-11-19T19:38:44.412Z,45.38
2022-11-19T19:41:17.253Z,41.30
2022-11-19T19:43:44.616Z,44.95
2022-11-19T19:46:15.915Z,42.28
2022-11-19T19:48:48.227Z,43.50
2022-11-19T19:51:17.189Z,43.63
2022-11-19T19:53:44.331Z,43.88
2022-11-19T19:56:15.556Z,45.22
2022-11-19T19:58:44.428Z,39.63
2022-11-19T20:01:17.721Z,39.58
2022-11-19T20:03:45.005Z,37.78
2022-11-19T20:06:14.712Z,38.42
2022-11-19T20:08:42.872Z,35.53
2022-11-19T20:11:15.021Z,32.25
2022-11-19T20:13:43.072Z,39.90
2022-11-19T20:16:18.424Z,41.65
2022-11-19T20:18:47.021Z,42.15
2022-11-19T20:21:19.821Z,39.05
2022-11-19T20:23:47.253Z,38.22
2022-11-19T20:26:21.265Z,36.75
2022-11-19T20:28:53.340Z,30.70
2022-11-19T20:31:21.001Z,36.78
2022-11-19T20:33:55.061Z,35.10
2022-11-19T20:36:24.798Z,33.83
2022-11-19T20:38:52.693Z,39.17
2022-11-19T20:41:40.963Z,40.58
2022-11-19T20:44:21.956Z,43.72
2022-11-19T20:46:54.683Z,46.78
2022-11-19T20:49:25.134Z,42.80
2022-11-19T20:51:53.551Z,39.25
2022-11-19T20:54:22.171Z,41.85
2022-11-19T20:56:51.518Z,43.45
2022-11-19T20:59:19.242Z,45.50
2022-11-19T21:01:50.891Z,40.25
2022-11-19T21:04:19.278Z,41.90
2022-11-19T21:06:46.754Z,47.88
2022-11-19T21:09:15.737Z,42.83
2022-11-19T21:11:43.483Z,44.38
2022-11-19T21:14:10.491Z,42.97
2022-11-19T21:16:37.674Z,43.92
2022-11-19T21:19:04.811Z,38.92
2022-11-19T21:21:31.831Z,43.65
2022-11-19T21:23:58.776Z,36.75
2022-11-19T21:26:27.754Z,40.13
2022-11-19T21:28:57.043Z,33.20
2022-11-19T21:31:42.158Z,38.15
2022-11-19T21:34:14.668Z,39.50
2022-11-19T21:36:43.749Z,34.78
2022-11-19T21:39:12.030Z,32.80
2022-11-19T21:41:39.097Z,32.47
2022-11-19T21:44:06.683Z,33.90
2022-11-19T21:46:34.463Z,30.55
2022-11-19T21:49:02.503Z,33.78
2022-11-19T21:51:29.759Z,33.50
2022-11-19T21:53:57.797Z,34.03
2022-11-19T21:56:26.782Z,28.52
2022-11-19T21:58:53.760Z,31.48
2022-11-19T22:01:21.014Z,32.45
2022-11-19T22:03:48.126Z,47.35
2022-11-19T22:06:15.180Z,31.25
2022-11-19T22:08:43.360Z,33.13
2022-11-19T22:11:30.334Z,33.58
2022-11-19T22:14:08.074Z,36.70
2022-11-19T22:16:37.963Z,36.42
2022-11-19T22:19:05.943Z,37.97
2022-11-19T22:21:33.401Z,39.72
2022-11-19T22:24:00.470Z,34.67
2022-11-19T22:26:27.944Z,35.40
2022-11-19T22:28:55.423Z,32.95
2022-11-19T22:31:24.238Z,34.13
2022-11-19T22:33:52.199Z,34.20
2022-11-19T22:36:20.257Z,33.08
2022-11-19T22:38:47.402Z,31.40
2022-11-19T22:41:17.520Z,32.70
2022-11-19T22:43:44.853Z,29.92
2022-11-19T22:46:13.258Z,30.27
2022-11-19T22:48:40.850Z,30.63
2022-11-19T22:51:17.166Z,34.15
2022-11-19T22:53:45.098Z,34.83
2022-11-19T22:56:15.505Z,43.97
2022-11-19T22:58:42.981Z,35.53
2022-11-19T23:01:22.251Z,52.22
2022-11-19T23:03:49.776Z,41.63
2022-11-19T23:06:17.234Z,36.80
2022-11-19T23:08:45.059Z,33.80
2022-11-19T23:11:14.656Z,31.38
2022-11-19T23:13:43.946Z,35.40
2022-11-19T23:16:17.493Z,37.83
2022-11-19T23:18:49.620Z,32.90
2022-11-19T23:21:28.381Z,34.42
2022-11-19T23:23:56.342Z,34.20
2022-11-19T23:26:25.400Z,36.72
2022-11-19T23:28:53.339Z,33.55
2022-11-19T23:31:32.152Z,35.03
2022-11-19T23:33:59.726Z,32.47
2022-11-19T23:36:31.872Z,31.55
2022-11-19T23:38:59.893Z,38.72
2022-11-19T23:41:27.533Z,38.08
2022-11-19T23:43:55.343Z,34.15
2022-11-19T23:46:25.064Z,36.55
2022-11-19T23:48:54.855Z,39.75
2022-11-19T23:51:29.973Z,36.47
2022-11-19T23:53:57.621Z,33.08
2022-11-19T23:56:26.318Z,35.28
2022-11-19T23:58:53.354Z,37.17
